createdAt,value
2017-07-15T00:01:02.998Z,32.97
2017-07-15T00:03:31.676Z,28.37
2017-07-15T00:06:00.023Z,26.23
2017-07-15T00:08:29.234Z,29.50
2017-07-15T00:10:57.549Z,27.43
2017-07-15T00:13:25.904Z,37.93
2017-07-15T00:15:54.220Z,27.23
2017-07-15T00:18:22.540Z,27.03
2017-07-15T00:20:51.961Z,29.20
2017-07-15T00:23:21.454Z,25.67
2017-07-15T00:25:49.827Z,29.50
2017-07-15T00:28:18.194Z,24.90
2017-07-15T00:30:47.264Z,29.70
2017-07-15T00:33:15.579Z,30.97
2017-07-15T00:35:43.931Z,29.77
2017-07-15T00:38:13.050Z,29.00
2017-07-15T00:40:41.370Z,25.93
2017-07-15T00:43:09.807Z,24.80
2017-07-15T00:45:38.186Z,28.30
2017-07-15T00:48:06.504Z,30.40
2017-07-15T00:50:34.932Z,24.73
2017-07-15T00:53:04.042Z,24.93
2017-07-15T00:55:32.414Z,28.00
2017-07-15T00:58:01.503Z,23.57
2017-07-15T01:00:29.842Z,25.77
2017-07-15T01:02:58.191Z,21.97
2017-07-15T01:05:26.538Z,23.10
2017-07-15T01:07:55.612Z,22.47
2017-07-15T01:10:24.724Z,17.67
2017-07-15T01:12:53.070Z,20.63
2017-07-15T01:15:21.371Z,19.70
2017-07-15T01:17:50.576Z,18.97
2017-07-15T01:20:19.775Z,20.30
2017-07-15T01:22:48.916Z,21.00
2017-07-15T01:25:17.243Z,20.57
2017-07-15T01:27:45.562Z,21.60
2017-07-15T01:30:13.928Z,25.50
2017-07-15T01:32:42.233Z,22.60
2017-07-15T01:35:10.563Z,17.03
2017-07-15T01:37:38.938Z,17.17
2017-07-15T01:40:07.309Z,18.17
2017-07-15T01:42:35.652Z,17.97
2017-07-15T01:45:04.884Z,18.77
2017-07-15T01:47:33.207Z,17.37
2017-07-15T01:50:01.634Z,16.60
2017-07-15T01:52:30.114Z,16.70
2017-07-15T01:54:58.541Z,16.67
2017-07-15T01:57:26.872Z,17.80
2017-07-15T01:59:55.231Z,19.33
2017-07-15T02:02:24.323Z,20.80
2017-07-15T02:04:52.720Z,23.80
2017-07-15T02:07:21.910Z,14.03
2017-07-15T02:09:51.120Z,12.27
2017-07-15T02:12:19.496Z,15.60
2017-07-15T02:14:48.554Z,13.60
2017-07-15T02:17:16.971Z,14.23
2017-07-15T02:19:45.370Z,12.80
2017-07-15T02:22:13.664Z,11.93
2017-07-15T02:24:41.963Z,11.10
2017-07-15T02:27:10.310Z,16.07
2017-07-15T02:29:38.759Z,11.87
2017-07-15T02:32:07.128Z,11.87
2017-07-15T02:34:36.226Z,14.33
2017-07-15T02:37:04.574Z,11.53
2017-07-15T02:39:32.880Z,9.47
2017-07-15T02:42:02.004Z,11.87
2017-07-15T02:44:30.351Z,10.27
2017-07-15T02:46:59.444Z,10.27
2017-07-15T02:49:28.639Z,8.50
2017-07-15T02:51:56.946Z,7.80
2017-07-15T02:54:25.296Z,7.07
2017-07-15T02:56:54.363Z,8.13
2017-07-15T02:59:22.658Z,8.60
2017-07-15T03:01:50.983Z,10.33
2017-07-15T03:04:19.332Z,11.33
2017-07-15T03:06:48.510Z,8.33
2017-07-15T03:09:17.578Z,7.93
2017-07-15T03:11:45.884Z,12.03
2017-07-15T03:14:14.264Z,7.67
2017-07-15T03:16:42.654Z,6.67
2017-07-15T03:19:11.015Z,7.90
2017-07-15T03:21:40.135Z,6.33
2017-07-15T03:24:08.494Z,15.50
2017-07-15T03:26:48.897Z,12.07
2017-07-15T03:29:17.206Z,10.30
2017-07-15T03:31:45.504Z,9.73
2017-07-15T03:34:14.703Z,14.73
2017-07-15T03:36:43.801Z,8.00
2017-07-15T03:39:12.179Z,7.90
2017-07-15T03:41:41.303Z,7.90
2017-07-15T03:44:09.604Z,9.70
2017-07-15T03:46:37.948Z,11.30
2017-07-15T03:49:06.292Z,10.20
2017-07-15T03:51:34.682Z,7.37
2017-07-15T03:54:03.879Z,9.13
2017-07-15T03:56:32.160Z,8.10
2017-07-15T03:59:00.487Z,10.10
2017-07-15T04:01:28.774Z,9.17
2017-07-15T04:03:57.085Z,6.47
2017-07-15T04:06:26.279Z,11.07
2017-07-15T04:08:55.616Z,7.23
2017-07-15T04:11:23.973Z,14.53
2017-07-15T04:13:52.346Z,9.67
2017-07-15T04:16:20.716Z,6.93
2017-07-15T04:18:49.158Z,7.87
2017-07-15T04:21:18.660Z,12.00
2017-07-15T04:23:46.974Z,7.13
2017-07-15T04:26:16.072Z,7.33
2017-07-15T04:28:44.445Z,10.03
2017-07-15T04:31:13.563Z,8.30
2017-07-15T04:33:41.943Z,8.07
2017-07-15T04:36:10.235Z,7.40
2017-07-15T04:38:38.588Z,8.87
2017-07-15T04:41:06.904Z,8.70
2017-07-15T04:43:35.273Z,10.63
2017-07-15T04:46:03.706Z,9.30
2017-07-15T04:48:32.028Z,9.80
2017-07-15T04:51:00.348Z,8.60
2017-07-15T04:53:29.492Z,8.83
2017-07-15T04:55:57.786Z,15.53
2017-07-15T04:58:26.125Z,8.57
2017-07-15T05:00:54.482Z,8.50
2017-07-15T05:03:22.828Z,9.60
2017-07-15T05:05:51.142Z,9.73
2017-07-15T05:08:20.275Z,7.70
2017-07-15T05:10:48.620Z,9.17
2017-07-15T05:13:16.995Z,12.47
2017-07-15T05:15:45.479Z,11.77
2017-07-15T05:18:13.815Z,9.33
2017-07-15T05:20:42.123Z,9.17
2017-07-15T05:23:10.646Z,10.00
2017-07-15T05:25:38.974Z,10.30
2017-07-15T05:28:08.107Z,10.87
2017-07-15T05:30:36.467Z,11.17
2017-07-15T05:33:05.348Z,11.73
2017-07-15T05:35:33.842Z,10.53
2017-07-15T05:38:02.207Z,10.07
2017-07-15T05:40:30.531Z,10.17
2017-07-15T05:42:58.871Z,8.57
2017-07-15T05:45:28.073Z,10.57
2017-07-15T05:47:57.131Z,10.83
2017-07-15T05:50:25.542Z,11.57
2017-07-15T05:52:54.649Z,11.60
2017-07-15T05:55:23.017Z,9.50
2017-07-15T05:57:51.708Z,8.90
2017-07-15T06:00:20.874Z,10.90
2017-07-15T06:02:49.214Z,9.63
2017-07-15T06:05:18.419Z,11.70
2017-07-15T06:07:46.780Z,17.10
2017-07-15T06:10:15.325Z,15.60
2017-07-15T06:12:44.406Z,17.23
2017-07-15T06:15:12.770Z,13.30
2017-07-15T06:17:41.103Z,12.13
2017-07-15T06:20:10.991Z,12.90
2017-07-15T06:22:39.310Z,16.00
2017-07-15T06:25:07.748Z,12.10
2017-07-15T06:27:36.060Z,10.93
2017-07-15T06:30:04.601Z,13.30
2017-07-15T06:32:32.989Z,18.37
2017-07-15T06:35:01.343Z,16.50
2017-07-15T06:37:30.443Z,18.33
2017-07-15T06:40:00.174Z,11.70
2017-07-15T06:42:29.159Z,10.87
2017-07-15T06:44:58.973Z,10.00
2017-07-15T06:47:28.986Z,9.77
2017-07-15T06:49:58.821Z,8.40
2017-07-15T06:52:28.667Z,92.80
2017-07-15T06:54:58.502Z,93.20
2017-07-15T06:57:28.359Z,92.20
2017-07-15T06:59:58.256Z,89.03
2017-07-15T07:02:28.190Z,79.43
2017-07-15T07:04:58.026Z,95.13
2017-07-15T07:07:28.507Z,78.60
2017-07-15T07:09:58.423Z,71.50
2017-07-15T07:12:28.332Z,69.00
2017-07-15T07:14:58.175Z,65.70
2017-07-15T07:17:28.078Z,74.03
2017-07-15T07:19:58.180Z,90.50
2017-07-15T07:22:28.015Z,114.57
2017-07-15T07:24:57.910Z,83.10
2017-07-15T07:27:27.827Z,85.17
2017-07-15T07:29:57.897Z,106.33
2017-07-15T07:32:27.768Z,107.20
2017-07-15T07:34:57.675Z,107.10
2017-07-15T07:37:27.538Z,102.50
2017-07-15T07:39:57.799Z,84.60
2017-07-15T07:42:27.711Z,82.77
2017-07-15T07:44:57.627Z,101.60
2017-07-15T07:47:27.491Z,109.13
2017-07-15T07:49:57.335Z,106.10
2017-07-15T07:52:27.267Z,93.53
2017-07-15T07:54:57.117Z,108.90
2017-07-15T07:57:26.991Z,110.70
2017-07-15T07:59:56.840Z,118.43
2017-07-15T08:02:26.732Z,120.97
2017-07-15T08:04:56.617Z,119.30
2017-07-15T08:07:26.444Z,148.07
2017-07-15T08:09:57.116Z,132.10
2017-07-15T08:12:27.199Z,146.17
2017-07-15T08:14:57.042Z,146.60
2017-07-15T08:17:27.137Z,125.93
2017-07-15T08:19:57.002Z,112.43
2017-07-15T08:22:26.843Z,100.43
2017-07-15T08:24:56.762Z,138.93
2017-07-15T08:27:26.622Z,91.77
2017-07-15T08:29:56.477Z,145.87
2017-07-15T08:32:26.349Z,123.93
2017-07-15T08:34:56.337Z,131.37
2017-07-15T08:37:26.191Z,145.13
2017-07-15T08:39:56.256Z,127.77
2017-07-15T08:42:26.162Z,127.90
2017-07-15T08:44:56.085Z,139.03
2017-07-15T08:47:25.967Z,142.43
2017-07-15T08:49:55.804Z,142.70
2017-07-15T08:52:25.716Z,203.80
2017-07-15T08:54:55.564Z,188.43
2017-07-15T08:57:25.631Z,190.40
2017-07-15T08:59:55.463Z,187.90
2017-07-15T09:02:25.323Z,201.67
2017-07-15T09:04:55.172Z,169.47
2017-07-15T09:07:25.040Z,176.43
2017-07-15T09:09:54.918Z,166.20
2017-07-15T09:12:25.241Z,157.57
2017-07-15T09:14:55.150Z,156.20
2017-07-15T09:17:25.065Z,180.17
2017-07-15T09:19:54.951Z,169.77
2017-07-15T09:22:24.799Z,163.43
2017-07-15T09:24:54.669Z,168.33
2017-07-15T09:27:24.516Z,167.97
2017-07-15T09:29:54.395Z,170.00
2017-07-15T09:32:24.459Z,149.33
2017-07-15T09:34:54.667Z,171.37
2017-07-15T09:37:24.516Z,146.43
2017-07-15T09:39:54.383Z,226.33
2017-07-15T09:42:24.260Z,194.80
2017-07-15T09:44:54.099Z,187.43
2017-07-15T09:47:24.033Z,210.23
2017-07-15T09:49:53.872Z,191.40
2017-07-15T09:52:23.743Z,204.23
2017-07-15T09:54:53.603Z,184.47
2017-07-15T09:57:23.582Z,176.20
2017-07-15T09:59:53.505Z,157.70
2017-07-15T10:02:23.511Z,90.33
2017-07-15T10:04:53.427Z,186.30
2017-07-15T10:07:23.311Z,170.10
2017-07-15T10:09:53.292Z,160.60
2017-07-15T10:12:23.119Z,208.07
2017-07-15T10:14:52.999Z,237.93
2017-07-15T10:17:22.834Z,187.57
2017-07-15T10:19:52.691Z,215.37
2017-07-15T10:22:22.722Z,200.10
2017-07-15T10:24:52.582Z,240.13
2017-07-15T10:27:22.821Z,155.57
2017-07-15T10:29:52.667Z,214.20
2017-07-15T10:32:22.584Z,206.30
2017-07-15T10:34:52.594Z,154.77
2017-07-15T10:37:22.489Z,150.97
2017-07-15T10:39:52.392Z,142.63
2017-07-15T10:42:22.248Z,121.87
2017-07-15T10:44:53.075Z,152.10
2017-07-15T10:47:22.963Z,164.90
2017-07-15T10:49:52.783Z,142.23
2017-07-15T10:52:22.669Z,178.53
2017-07-15T10:54:52.627Z,134.43
2017-07-15T10:57:22.538Z,146.60
2017-07-15T10:59:52.398Z,179.87
2017-07-15T11:02:22.593Z,192.87
2017-07-15T11:04:52.491Z,200.53
2017-07-15T11:07:22.422Z,166.47
2017-07-15T11:09:52.295Z,150.13
2017-07-15T11:12:22.127Z,126.60
2017-07-15T11:14:52.032Z,109.73
2017-07-15T11:17:21.955Z,150.70
2017-07-15T11:19:51.816Z,153.23
2017-07-15T11:22:21.945Z,178.47
2017-07-15T11:24:51.912Z,181.90
2017-07-15T11:27:21.815Z,231.33
2017-07-15T11:29:51.868Z,151.00
2017-07-15T11:32:21.767Z,177.90
2017-07-15T11:34:51.695Z,183.63
2017-07-15T11:37:21.555Z,178.57
2017-07-15T11:39:51.591Z,247.40
2017-07-15T11:42:21.527Z,216.83
2017-07-15T11:44:51.418Z,200.90
2017-07-15T11:47:21.330Z,166.50
2017-07-15T11:49:51.194Z,165.30
2017-07-15T11:52:21.075Z,189.30
2017-07-15T11:54:51.122Z,219.43
2017-07-15T11:57:21.218Z,231.80
2017-07-15T11:59:51.106Z,220.67
2017-07-15T12:02:21.229Z,253.57
2017-07-15T12:04:51.475Z,222.33
2017-07-15T12:07:21.311Z,205.87
2017-07-15T12:09:51.274Z,171.33
2017-07-15T12:12:21.102Z,215.03
2017-07-15T12:14:51.098Z,248.67
2017-07-15T12:17:21.039Z,249.70
2017-07-15T12:19:50.937Z,207.07
2017-07-15T12:22:20.802Z,213.03
2017-07-15T12:24:50.718Z,133.50
2017-07-15T12:27:20.580Z,164.77
2017-07-15T12:29:50.423Z,216.27
2017-07-15T12:32:20.291Z,206.83
2017-07-15T12:34:50.190Z,176.13
2017-07-15T12:37:20.055Z,197.70
2017-07-15T12:39:49.936Z,161.67
2017-07-15T12:42:19.859Z,216.57
2017-07-15T12:44:49.793Z,164.23
2017-07-15T12:47:19.684Z,218.77
2017-07-15T12:49:50.114Z,183.87
2017-07-15T12:52:20.063Z,190.53
2017-07-15T12:54:49.894Z,201.43
2017-07-15T12:57:19.762Z,163.37
2017-07-15T12:59:49.667Z,168.27
2017-07-15T13:02:20.160Z,156.67
2017-07-15T13:04:50.015Z,145.00
2017-07-15T13:07:19.867Z,185.33
2017-07-15T13:09:49.935Z,208.93
2017-07-15T13:12:19.775Z,203.83
2017-07-15T13:14:50.496Z,160.00
2017-07-15T13:17:20.487Z,176.23
2017-07-15T13:19:50.326Z,165.97
2017-07-15T13:22:20.187Z,160.70
2017-07-15T13:24:50.056Z,159.00
2017-07-15T13:27:19.972Z,223.73
2017-07-15T13:29:49.862Z,158.17
2017-07-15T13:32:19.722Z,178.77
2017-07-15T13:34:49.814Z,163.07
2017-07-15T13:37:19.715Z,170.93
2017-07-15T13:39:49.599Z,158.30
2017-07-15T13:42:19.485Z,181.57
2017-07-15T13:44:49.351Z,205.17
2017-07-15T13:47:19.233Z,191.37
2017-07-15T13:49:49.102Z,210.13
2017-07-15T13:52:19.103Z,200.17
2017-07-15T13:54:48.934Z,239.00
2017-07-15T13:57:18.820Z,203.97
2017-07-15T13:59:48.677Z,231.07
2017-07-15T14:02:18.745Z,227.03
2017-07-15T14:04:48.656Z,184.67
2017-07-15T14:07:18.530Z,217.20
2017-07-15T14:09:49.212Z,235.87
2017-07-15T14:12:19.059Z,253.23
2017-07-15T14:14:48.929Z,268.63
2017-07-15T14:17:19.053Z,199.07
2017-07-15T14:19:48.915Z,232.07
2017-07-15T14:22:18.771Z,218.70
2017-07-15T14:24:48.807Z,243.63
2017-07-15T14:27:17.055Z,212.23
2017-07-15T14:29:45.401Z,209.50
2017-07-15T14:32:14.629Z,209.27
2017-07-15T14:34:42.979Z,212.63
2017-07-15T14:37:15.079Z,253.53
2017-07-15T14:39:43.412Z,307.33
2017-07-15T14:42:12.539Z,287.07
2017-07-15T14:44:40.916Z,348.47
2017-07-15T14:47:09.511Z,300.77
2017-07-15T14:49:37.880Z,253.20
2017-07-15T14:52:06.239Z,328.50
2017-07-15T14:54:34.711Z,312.67
2017-07-15T14:57:03.931Z,338.60
2017-07-15T14:59:32.275Z,315.83
2017-07-15T15:02:01.826Z,302.23
2017-07-15T15:04:30.197Z,293.13
2017-07-15T15:06:59.483Z,325.70
2017-07-15T15:09:27.803Z,307.23
2017-07-15T15:11:56.150Z,287.17
2017-07-15T15:14:24.545Z,269.87
2017-07-15T15:16:52.874Z,280.40
2017-07-15T15:19:21.197Z,244.70
2017-07-15T15:21:49.505Z,266.47
2017-07-15T15:24:17.844Z,277.13
2017-07-15T15:26:46.196Z,241.60
2017-07-15T15:29:14.906Z,285.80
2017-07-15T15:31:43.239Z,240.00
2017-07-15T15:34:11.567Z,243.90
2017-07-15T15:36:39.930Z,157.07
2017-07-15T15:39:08.517Z,200.13
2017-07-15T15:41:36.884Z,191.27
2017-07-15T15:44:05.217Z,196.57
2017-07-15T15:46:33.574Z,178.23
2017-07-15T15:49:01.924Z,170.77
2017-07-15T15:51:30.392Z,175.23
2017-07-15T15:53:58.743Z,165.47
2017-07-15T15:56:27.089Z,182.13
2017-07-15T15:58:55.429Z,185.70
2017-07-15T16:01:23.727Z,233.00
2017-07-15T16:03:52.080Z,177.47
2017-07-15T16:06:20.412Z,241.87
2017-07-15T16:08:48.765Z,235.93
2017-07-15T16:11:17.096Z,257.17
2017-07-15T16:13:45.615Z,264.77
2017-07-15T16:16:13.959Z,220.13
2017-07-15T16:18:43.282Z,226.30
2017-07-15T16:21:12.364Z,206.03
2017-07-15T16:23:40.699Z,174.33
2017-07-15T16:26:09.086Z,144.03
2017-07-15T16:28:37.440Z,140.97
2017-07-15T16:31:05.798Z,216.87
2017-07-15T16:33:34.115Z,202.80
2017-07-15T16:36:02.451Z,206.13
2017-07-15T16:38:30.771Z,195.27
2017-07-15T16:40:59.232Z,219.60
2017-07-15T16:43:27.540Z,199.93
2017-07-15T16:45:55.867Z,220.50
2017-07-15T16:48:24.215Z,198.13
2017-07-15T16:50:52.557Z,171.10
2017-07-15T16:53:20.880Z,180.67
2017-07-15T16:55:49.290Z,155.50
2017-07-15T16:58:17.648Z,152.17
2017-07-15T17:00:45.973Z,184.93
2017-07-15T17:03:14.337Z,240.90
2017-07-15T17:05:42.679Z,234.00
2017-07-15T17:08:11.004Z,215.73
2017-07-15T17:10:39.337Z,221.80
2017-07-15T17:13:07.879Z,245.60
2017-07-15T17:15:36.978Z,320.20
2017-07-15T17:18:05.315Z,304.10
2017-07-15T17:20:33.678Z,253.50
2017-07-15T17:23:02.005Z,248.17
2017-07-15T17:25:31.134Z,231.63
2017-07-15T17:28:00.207Z,249.73
2017-07-15T17:30:28.528Z,264.03
2017-07-15T17:32:56.869Z,251.57
2017-07-15T17:35:26.073Z,238.77
2017-07-15T17:37:54.452Z,256.93
2017-07-15T17:40:22.763Z,198.90
2017-07-15T17:42:51.128Z,197.83
2017-07-15T17:45:19.435Z,215.50
2017-07-15T17:47:47.784Z,250.37
2017-07-15T17:50:16.111Z,254.97
2017-07-15T17:52:45.215Z,277.67
2017-07-15T17:55:13.576Z,341.23
2017-07-15T17:57:42.687Z,262.50
2017-07-15T18:00:11.029Z,248.90
2017-07-15T18:02:39.561Z,241.37
2017-07-15T18:05:07.896Z,268.67
2017-07-15T18:07:36.203Z,257.87
2017-07-15T18:10:04.544Z,284.07
2017-07-15T18:12:32.881Z,299.80
2017-07-15T18:15:01.202Z,256.73
2017-07-15T18:17:29.640Z,271.70
2017-07-15T18:19:58.026Z,235.60
2017-07-15T18:22:26.358Z,250.57
2017-07-15T18:24:55.474Z,285.17
2017-07-15T18:27:23.800Z,266.20
2017-07-15T18:29:52.139Z,166.57
2017-07-15T18:32:20.450Z,234.47
2017-07-15T18:34:48.884Z,254.47
2017-07-15T18:37:17.336Z,19.90
2017-07-15T18:39:45.685Z,27.00
2017-07-15T18:42:14.217Z,24.97
2017-07-15T18:44:43.297Z,22.73
2017-07-15T18:47:11.638Z,33.03
2017-07-15T18:49:39.939Z,31.10
2017-07-15T18:52:09.049Z,31.93
2017-07-15T18:54:38.132Z,36.10
2017-07-15T18:57:07.247Z,23.93
2017-07-15T18:59:36.292Z,37.07
2017-07-15T19:02:04.639Z,23.67
2017-07-15T19:04:32.974Z,34.53
2017-07-15T19:07:02.173Z,28.60
2017-07-15T19:09:31.288Z,35.07
2017-07-15T19:11:59.707Z,26.27
2017-07-15T19:14:28.051Z,34.43
2017-07-15T19:16:57.404Z,43.13
2017-07-15T19:19:25.729Z,31.03
2017-07-15T19:21:54.820Z,34.07
2017-07-15T19:24:24.012Z,22.30
2017-07-15T19:26:52.304Z,27.50
2017-07-15T19:29:20.648Z,21.67
2017-07-15T19:31:49.753Z,24.37
2017-07-15T19:34:18.878Z,33.60
2017-07-15T19:36:47.975Z,28.67
2017-07-15T19:39:16.321Z,41.43
2017-07-15T19:41:45.395Z,34.40
2017-07-15T19:44:14.727Z,36.77
2017-07-15T19:46:43.045Z,34.50
2017-07-15T19:49:11.340Z,40.47
2017-07-15T19:51:39.672Z,30.37
2017-07-15T19:54:08.752Z,29.70
2017-07-15T19:56:37.336Z,24.27
2017-07-15T19:59:05.716Z,27.63
2017-07-15T20:01:34.063Z,47.13
2017-07-15T20:04:02.350Z,36.37
2017-07-15T20:06:30.682Z,22.97
2017-07-15T20:08:58.968Z,23.63
2017-07-15T20:11:27.501Z,32.57
2017-07-15T20:13:55.834Z,20.93
2017-07-15T20:16:24.156Z,17.47
2017-07-15T20:18:53.239Z,40.23
2017-07-15T20:21:21.668Z,30.47
2017-07-15T20:23:50.035Z,19.87
2017-07-15T20:26:18.384Z,25.70
2017-07-15T20:28:47.477Z,21.43
2017-07-15T20:31:15.862Z,26.67
2017-07-15T20:33:44.214Z,18.50
2017-07-15T20:36:18.295Z,20.00
2017-07-15T20:38:46.727Z,21.10
2017-07-15T20:41:15.823Z,17.80
2017-07-15T20:43:44.291Z,25.87
2017-07-15T20:46:13.393Z,22.97
2017-07-15T20:48:41.872Z,18.70
2017-07-15T20:51:10.789Z,25.00
2017-07-15T20:53:45.111Z,25.53
2017-07-15T20:56:13.706Z,27.33
2017-07-15T20:58:42.135Z,25.90
2017-07-15T21:01:10.516Z,23.10
2017-07-15T21:03:38.896Z,17.63
2017-07-15T21:06:07.987Z,16.43
2017-07-15T21:08:37.069Z,20.93
2017-07-15T21:11:06.182Z,20.87
2017-07-15T21:13:34.509Z,24.37
2017-07-15T21:16:03.240Z,20.07
2017-07-15T21:18:32.324Z,15.20
2017-07-15T21:21:00.772Z,16.70
2017-07-15T21:23:29.095Z,19.40
2017-07-15T21:25:58.163Z,21.67
2017-07-15T21:28:26.500Z,15.77
2017-07-15T21:30:54.806Z,20.90
2017-07-15T21:33:23.924Z,20.37
2017-07-15T21:35:52.237Z,17.53
2017-07-15T21:38:20.651Z,16.20
2017-07-15T21:40:49.079Z,23.50
2017-07-15T21:43:17.681Z,21.40
2017-07-15T21:45:46.031Z,21.70
2017-07-15T21:48:15.106Z,27.83
2017-07-15T21:50:43.467Z,18.10
2017-07-15T21:53:11.775Z,20.07
2017-07-15T21:55:40.095Z,17.00
2017-07-15T21:58:08.415Z,23.70
2017-07-15T22:00:36.815Z,19.07
2017-07-15T22:03:05.906Z,19.43
2017-07-15T22:05:34.289Z,24.60
2017-07-15T22:08:02.668Z,23.80
2017-07-15T22:10:31.766Z,23.90
2017-07-15T22:13:00.851Z,20.67
2017-07-15T22:15:30.149Z,28.07
2017-07-15T22:17:58.477Z,24.13
2017-07-15T22:20:26.820Z,26.27
2017-07-15T22:22:55.910Z,21.03
2017-07-15T22:25:24.288Z,24.23
2017-07-15T22:27:52.662Z,24.03
2017-07-15T22:30:21.732Z,20.60
2017-07-15T22:32:50.052Z,20.77
2017-07-15T22:35:18.412Z,22.80
2017-07-15T22:37:47.501Z,13.17
2017-07-15T22:40:16.595Z,17.97
2017-07-15T22:42:45.901Z,20.60
2017-07-15T22:45:15.154Z,23.60
2017-07-15T22:47:43.474Z,22.43
2017-07-15T22:50:11.814Z,18.37
2017-07-15T22:52:40.119Z,22.77
2017-07-15T22:55:09.219Z,17.93
2017-07-15T22:57:37.528Z,20.70
2017-07-15T23:00:05.881Z,20.77
2017-07-15T23:02:34.213Z,19.50
2017-07-15T23:05:02.735Z,19.83
2017-07-15T23:07:31.114Z,21.77
2017-07-15T23:09:59.490Z,16.33
2017-07-15T23:12:28.597Z,25.00
2017-07-15T23:14:56.893Z,21.83
2017-07-15T23:17:25.232Z,15.33
2017-07-15T23:19:53.533Z,16.43
2017-07-15T23:22:21.872Z,16.73
2017-07-15T23:24:50.176Z,14.37
2017-07-15T23:27:18.748Z,20.07
2017-07-15T23:29:47.859Z,17.53
2017-07-15T23:32:16.242Z,20.83
2017-07-15T23:34:44.703Z,17.50
2017-07-15T23:37:13.810Z,16.13
2017-07-15T23:39:42.171Z,17.83
2017-07-15T23:42:11.270Z,21.77
2017-07-15T23:44:39.624Z,17.97
2017-07-15T23:47:07.933Z,16.80
2017-07-15T23:49:36.303Z,20.40
2017-07-15T23:52:04.647Z,16.90
2017-07-15T23:54:34.246Z,20.67
2017-07-15T23:57:02.678Z,18.37
2017-07-15T23:59:31.035Z,16.27
